CheckWX is a tool to help pilots better visualize weather data.  It is not intended as a substitute for an official pre-flight weather briefing.

13:24:56 UTC

TDPD TAF
Melville Hall Airport
Marigot, Dominica
TAF TDPD 061100Z 0612/0712 10016KT 9999 SCT018 TEMPO 0612/0618 SHRA BKN015 PROB30 TEMPO 0703/0712 SHRA BKN015

Dec-6@
12:00 UTC

Dec-6 @ 12:00 UTC

Dec-7@
12:00 UTC

Dec-7 @ 12:00 UTC

TAF TDPD 061100Z 0612/0712 10016KT 9999 SCT018
Wind
  • 100° at 16 KTS
Cloud Levels
  • Scattered at 1,800' AGL

Dec-6@
12:00 UTC

Dec-6 @ 12:00 UTC

Dec-6@
18:00 UTC

Dec-6 @ 18:00 UTC

TEMPO 0612/0618 SHRA BKN015

Temporary

Temporary Changes expected for less than half the time period

Conditions
Rain
Cloud Levels
  • Broken at 1,500' AGL

Dec-7@
03:00 UTC

Dec-7 @ 03:00 UTC

Dec-7@
12:00 UTC

Dec-7 @ 12:00 UTC

PROB30 TEMPO 0703/0712 SHRA BKN015

Temporary - 30% Likelihood

Temporary - 30% Likelihood during this time.

Conditions
Rain
Cloud Levels
  • Broken at 1,500' AGL